Oppelo, Arkansas
Current Conditions -  °F | °C
As of 11:53 AM on Sunday 25 Jan 2015 (Local Time) from KRUE Reporting Station
Overcast Overcast  
Wind Chill: 55°   Ceiling: 6000
Heat Index: 55°   Visibility: 10mi
Dew Point: 34°   Wind: 23mph
Humidity: 45%   Direction: 280°W
Pressure: 29.76"   Gusts: 32mph
Location:  35.227°N, 92.6879°W
Report Text: KRUE 251753Z AUTO 28020G28KT 10SM OVC060 13/01 A2976 RMK AO2 PK WND 27032/1740 SLP075 60000 T01280011 10139 20033 53001
Loading
Personal Weather Stations






























Interactive Weather Map New forecast layout! Learn more

10-Day Weather Forecast

Advertisements
Track Severe Weather on mobile